sensor_id;sensor_type;location;lat;lon;timestamp;temperature;humidity
8095;DHT22;4090;49.270;8.696;2022-08-03T00:00:19;26.20;76.40
8095;DHT22;4090;49.270;8.696;2022-08-03T00:03:03;26.10;76.60
8095;DHT22;4090;49.270;8.696;2022-08-03T00:05:45;26.10;76.80
8095;DHT22;4090;49.270;8.696;2022-08-03T00:08:27;26.00;76.50
8095;DHT22;4090;49.270;8.696;2022-08-03T00:11:09;26.00;76.90
8095;DHT22;4090;49.270;8.696;2022-08-03T00:13:51;26.00;77.30
8095;DHT22;4090;49.270;8.696;2022-08-03T00:16:34;26.00;77.10
8095;DHT22;4090;49.270;8.696;2022-08-03T00:19:16;26.00;77.10
8095;DHT22;4090;49.270;8.696;2022-08-03T00:21:58;26.00;77.10
8095;DHT22;4090;49.270;8.696;2022-08-03T00:24:40;25.90;76.90
8095;DHT22;4090;49.270;8.696;2022-08-03T00:27:21;25.90;76.70
8095;DHT22;4090;49.270;8.696;2022-08-03T00:30:04;25.90;76.80
8095;DHT22;4090;49.270;8.696;2022-08-03T00:32:48;25.90;76.90
8095;DHT22;4090;49.270;8.696;2022-08-03T00:35:30;25.90;76.80
8095;DHT22;4090;49.270;8.696;2022-08-03T00:38:11;25.80;77.00
8095;DHT22;4090;49.270;8.696;2022-08-03T00:40:53;25.80;77.10
8095;DHT22;4090;49.270;8.696;2022-08-03T00:43:36;25.70;77.30
8095;DHT22;4090;49.270;8.696;2022-08-03T00:46:18;25.70;77.80
8095;DHT22;4090;49.270;8.696;2022-08-03T00:49:03;25.70;78.00
8095;DHT22;4090;49.270;8.696;2022-08-03T00:51:44;25.60;78.00
8095;DHT22;4090;49.270;8.696;2022-08-03T00:54:27;25.60;77.50
8095;DHT22;4090;49.270;8.696;2022-08-03T00:57:09;25.60;77.80
8095;DHT22;4090;49.270;8.696;2022-08-03T00:59:51;25.50;77.70
8095;DHT22;4090;49.270;8.696;2022-08-03T01:02:33;25.50;77.70
8095;DHT22;4090;49.270;8.696;2022-08-03T01:05:16;25.50;78.10
8095;DHT22;4090;49.270;8.696;2022-08-03T01:08:02;25.40;78.00
8095;DHT22;4090;49.270;8.696;2022-08-03T01:10:52;25.40;77.80
8095;DHT22;4090;49.270;8.696;2022-08-03T01:13:40;25.40;78.10
8095;DHT22;4090;49.270;8.696;2022-08-03T01:16:27;25.30;78.10
8095;DHT22;4090;49.270;8.696;2022-08-03T01:19:40;25.30;78.40
8095;DHT22;4090;49.270;8.696;2022-08-03T01:22:50;25.30;78.60
8095;DHT22;4090;49.270;8.696;2022-08-03T01:25:44;25.30;78.60
8095;DHT22;4090;49.270;8.696;2022-08-03T01:28:47;25.30;78.40
8095;DHT22;4090;49.270;8.696;2022-08-03T01:31:39;25.30;78.70
8095;DHT22;4090;49.270;8.696;2022-08-03T01:34:24;25.20;78.60
8095;DHT22;4090;49.270;8.696;2022-08-03T01:37:08;25.10;79.00
8095;DHT22;4090;49.270;8.696;2022-08-03T01:39:53;25.10;79.00
8095;DHT22;4090;49.270;8.696;2022-08-03T01:42:37;25.10;79.50
8095;DHT22;4090;49.270;8.696;2022-08-03T01:45:21;25.10;79.60
8095;DHT22;4090;49.270;8.696;2022-08-03T01:48:06;25.10;79.80
8095;DHT22;4090;49.270;8.696;2022-08-03T01:50:48;25.10;79.60
8095;DHT22;4090;49.270;8.696;2022-08-03T01:53:32;25.10;79.60
8095;DHT22;4090;49.270;8.696;2022-08-03T01:56:15;25.10;79.60
8095;DHT22;4090;49.270;8.696;2022-08-03T01:59:00;25.10;79.80
8095;DHT22;4090;49.270;8.696;2022-08-03T02:01:43;25.10;79.70
8095;DHT22;4090;49.270;8.696;2022-08-03T02:04:29;25.10;79.70
8095;DHT22;4090;49.270;8.696;2022-08-03T02:07:13;25.10;79.30
8095;DHT22;4090;49.270;8.696;2022-08-03T02:09:56;25.10;79.20
8095;DHT22;4090;49.270;8.696;2022-08-03T02:12:39;25.00;79.10
8095;DHT22;4090;49.270;8.696;2022-08-03T02:15:23;25.00;79.40
8095;DHT22;4090;49.270;8.696;2022-08-03T02:18:08;25.00;79.40
8095;DHT22;4090;49.270;8.696;2022-08-03T02:20:51;25.00;79.80
8095;DHT22;4090;49.270;8.696;2022-08-03T02:23:33;25.00;79.70
8095;DHT22;4090;49.270;8.696;2022-08-03T02:26:17;25.00;79.70
8095;DHT22;4090;49.270;8.696;2022-08-03T02:29:04;24.90;79.80
8095;DHT22;4090;49.270;8.696;2022-08-03T02:31:48;24.90;79.80
8095;DHT22;4090;49.270;8.696;2022-08-03T02:34:32;24.90;79.80
8095;DHT22;4090;49.270;8.696;2022-08-03T02:37:18;24.90;79.70
8095;DHT22;4090;49.270;8.696;2022-08-03T02:40:01;24.90;79.80
8095;DHT22;4090;49.270;8.696;2022-08-03T02:42:46;24.90;79.90
8095;DHT22;4090;49.270;8.696;2022-08-03T02:45:31;24.90;79.90
8095;DHT22;4090;49.270;8.696;2022-08-03T02:48:16;24.90;80.00
8095;DHT22;4090;49.270;8.696;2022-08-03T02:51:00;24.90;80.10
8095;DHT22;4090;49.270;8.696;2022-08-03T02:53:46;24.90;80.00
8095;DHT22;4090;49.270;8.696;2022-08-03T02:56:29;24.80;80.30
8095;DHT22;4090;49.270;8.696;2022-08-03T02:59:11;24.90;80.40
8095;DHT22;4090;49.270;8.696;2022-08-03T03:01:54;24.90;80.60
8095;DHT22;4090;49.270;8.696;2022-08-03T03:04:37;24.80;80.40
8095;DHT22;4090;49.270;8.696;2022-08-03T03:07:20;24.80;80.20
8095;DHT22;4090;49.270;8.696;2022-08-03T03:10:04;24.70;80.20
8095;DHT22;4090;49.270;8.696;2022-08-03T03:12:47;24.70;80.50
8095;DHT22;4090;49.270;8.696;2022-08-03T03:15:30;24.70;80.40
8095;DHT22;4090;49.270;8.696;2022-08-03T03:18:16;24.70;80.50
8095;DHT22;4090;49.270;8.696;2022-08-03T03:20:59;24.60;80.50
8095;DHT22;4090;49.270;8.696;2022-08-03T03:23:42;24.60;80.60
8095;DHT22;4090;49.270;8.696;2022-08-03T03:26:26;24.60;81.20
8095;DHT22;4090;49.270;8.696;2022-08-03T03:29:08;24.60;80.90
8095;DHT22;4090;49.270;8.696;2022-08-03T03:31:50;24.50;81.30
8095;DHT22;4090;49.270;8.696;2022-08-03T03:34:32;24.50;81.50
8095;DHT22;4090;49.270;8.696;2022-08-03T03:37:14;24.50;80.40
8095;DHT22;4090;49.270;8.696;2022-08-03T03:39:56;24.40;80.60
8095;DHT22;4090;49.270;8.696;2022-08-03T03:42:40;24.30;80.90
8095;DHT22;4090;49.270;8.696;2022-08-03T03:45:23;24.30;81.20
8095;DHT22;4090;49.270;8.696;2022-08-03T03:48:06;24.30;81.30
8095;DHT22;4090;49.270;8.696;2022-08-03T03:50:48;24.30;81.40
8095;DHT22;4090;49.270;8.696;2022-08-03T03:53:30;24.30;81.50
8095;DHT22;4090;49.270;8.696;2022-08-03T03:56:12;24.30;81.50
8095;DHT22;4090;49.270;8.696;2022-08-03T03:58:55;24.20;81.60
8095;DHT22;4090;49.270;8.696;2022-08-03T04:01:38;24.20;81.80
8095;DHT22;4090;49.270;8.696;2022-08-03T04:04:19;24.10;82.00
8095;DHT22;4090;49.270;8.696;2022-08-03T04:07:19;24.10;82.40
8095;DHT22;4090;49.270;8.696;2022-08-03T04:10:21;24.00;81.80
8095;DHT22;4090;49.270;8.696;2022-08-03T04:13:22;24.00;81.80
8095;DHT22;4090;49.270;8.696;2022-08-03T04:16:09;24.00;81.90
8095;DHT22;4090;49.270;8.696;2022-08-03T04:18:56;24.00;81.70
8095;DHT22;4090;49.270;8.696;2022-08-03T04:21:41;24.00;81.90
8095;DHT22;4090;49.270;8.696;2022-08-03T04:24:24;24.00;81.70
8095;DHT22;4090;49.270;8.696;2022-08-03T04:27:10;24.00;82.10
8095;DHT22;4090;49.270;8.696;2022-08-03T04:29:54;24.00;82.30
8095;DHT22;4090;49.270;8.696;2022-08-03T04:32:39;24.00;82.10
8095;DHT22;4090;49.270;8.696;2022-08-03T04:35:23;24.00;81.90
8095;DHT22;4090;49.270;8.696;2022-08-03T04:38:06;24.00;81.90
8095;DHT22;4090;49.270;8.696;2022-08-03T04:40:48;24.00;82.20
8095;DHT22;4090;49.270;8.696;2022-08-03T04:43:32;24.10;82.30
8095;DHT22;4090;49.270;8.696;2022-08-03T04:46:14;24.10;82.30
8095;DHT22;4090;49.270;8.696;2022-08-03T04:48:59;24.00;82.30
8095;DHT22;4090;49.270;8.696;2022-08-03T04:51:41;24.00;82.10
8095;DHT22;4090;49.270;8.696;2022-08-03T04:54:24;24.00;82.50
8095;DHT22;4090;49.270;8.696;2022-08-03T04:57:06;23.90;82.40
8095;DHT22;4090;49.270;8.696;2022-08-03T04:59:48;23.90;82.80
8095;DHT22;4090;49.270;8.696;2022-08-03T05:02:32;23.90;82.80
8095;DHT22;4090;49.270;8.696;2022-08-03T05:05:16;23.90;82.90
8095;DHT22;4090;49.270;8.696;2022-08-03T05:07:57;23.90;83.10
8095;DHT22;4090;49.270;8.696;2022-08-03T05:10:39;23.90;83.20
8095;DHT22;4090;49.270;8.696;2022-08-03T05:13:21;23.90;83.00
8095;DHT22;4090;49.270;8.696;2022-08-03T05:16:03;23.90;83.50
8095;DHT22;4090;49.270;8.696;2022-08-03T05:18:45;24.00;83.20
8095;DHT22;4090;49.270;8.696;2022-08-03T05:21:29;23.90;83.20
8095;DHT22;4090;49.270;8.696;2022-08-03T05:24:11;23.90;83.40
8095;DHT22;4090;49.270;8.696;2022-08-03T05:26:53;23.90;83.80
8095;DHT22;4090;49.270;8.696;2022-08-03T05:29:35;23.90;84.00
8095;DHT22;4090;49.270;8.696;2022-08-03T05:32:17;23.80;84.20
8095;DHT22;4090;49.270;8.696;2022-08-03T05:34:59;23.80;84.30
8095;DHT22;4090;49.270;8.696;2022-08-03T05:37:42;23.80;84.50
8095;DHT22;4090;49.270;8.696;2022-08-03T05:40:24;23.80;84.70
8095;DHT22;4090;49.270;8.696;2022-08-03T05:43:06;23.80;84.50
8095;DHT22;4090;49.270;8.696;2022-08-03T05:45:47;23.80;84.30
8095;DHT22;4090;49.270;8.696;2022-08-03T05:48:29;23.90;84.40
8095;DHT22;4090;49.270;8.696;2022-08-03T05:51:11;23.90;84.10
8095;DHT22;4090;49.270;8.696;2022-08-03T05:53:54;24.00;84.00
8095;DHT22;4090;49.270;8.696;2022-08-03T05:56:37;24.00;84.20
8095;DHT22;4090;49.270;8.696;2022-08-03T05:59:20;24.00;84.60
8095;DHT22;4090;49.270;8.696;2022-08-03T06:02:02;24.00;84.90
8095;DHT22;4090;49.270;8.696;2022-08-03T06:04:44;24.10;85.50
8095;DHT22;4090;49.270;8.696;2022-08-03T06:07:26;24.10;85.60
8095;DHT22;4090;49.270;8.696;2022-08-03T06:10:09;24.20;85.60
8095;DHT22;4090;49.270;8.696;2022-08-03T06:12:51;24.20;85.80
8095;DHT22;4090;49.270;8.696;2022-08-03T06:15:33;24.30;86.20
8095;DHT22;4090;49.270;8.696;2022-08-03T06:18:15;24.30;86.50
8095;DHT22;4090;49.270;8.696;2022-08-03T06:20:57;24.30;86.80
8095;DHT22;4090;49.270;8.696;2022-08-03T06:23:39;24.40;86.70
8095;DHT22;4090;49.270;8.696;2022-08-03T06:26:26;24.30;87.00
8095;DHT22;4090;49.270;8.696;2022-08-03T06:29:08;24.40;87.20
8095;DHT22;4090;49.270;8.696;2022-08-03T06:31:50;24.40;87.10
8095;DHT22;4090;49.270;8.696;2022-08-03T06:34:32;24.40;86.90
8095;DHT22;4090;49.270;8.696;2022-08-03T06:37:13;24.40;86.80
8095;DHT22;4090;49.270;8.696;2022-08-03T06:39:55;24.40;87.30
8095;DHT22;4090;49.270;8.696;2022-08-03T06:42:38;24.40;88.40
8095;DHT22;4090;49.270;8.696;2022-08-03T06:45:20;24.40;87.60
8095;DHT22;4090;49.270;8.696;2022-08-03T06:48:04;24.50;87.80
8095;DHT22;4090;49.270;8.696;2022-08-03T06:50:46;24.50;87.60
8095;DHT22;4090;49.270;8.696;2022-08-03T06:53:27;24.50;87.00
8095;DHT22;4090;49.270;8.696;2022-08-03T06:56:09;24.50;86.90
8095;DHT22;4090;49.270;8.696;2022-08-03T06:58:52;24.50;87.00
8095;DHT22;4090;49.270;8.696;2022-08-03T07:01:34;24.60;87.20
8095;DHT22;4090;49.270;8.696;2022-08-03T07:04:16;24.60;87.30
8095;DHT22;4090;49.270;8.696;2022-08-03T07:06:58;24.60;87.30
8095;DHT22;4090;49.270;8.696;2022-08-03T07:09:40;24.60;87.30
8095;DHT22;4090;49.270;8.696;2022-08-03T07:12:21;24.70;87.70
8095;DHT22;4090;49.270;8.696;2022-08-03T07:15:06;24.70;87.70
8095;DHT22;4090;49.270;8.696;2022-08-03T07:17:48;24.70;87.80
8095;DHT22;4090;49.270;8.696;2022-08-03T07:20:30;24.80;87.80
8095;DHT22;4090;49.270;8.696;2022-08-03T07:23:11;24.80;87.50
8095;DHT22;4090;49.270;8.696;2022-08-03T07:25:53;24.80;88.00
8095;DHT22;4090;49.270;8.696;2022-08-03T07:28:35;24.80;88.20
8095;DHT22;4090;49.270;8.696;2022-08-03T07:31:18;24.90;88.40
8095;DHT22;4090;49.270;8.696;2022-08-03T07:34:00;24.90;88.70
8095;DHT22;4090;49.270;8.696;2022-08-03T07:36:42;24.90;88.80
8095;DHT22;4090;49.270;8.696;2022-08-03T07:39:24;24.90;88.90
8095;DHT22;4090;49.270;8.696;2022-08-03T07:42:06;25.00;89.10
8095;DHT22;4090;49.270;8.696;2022-08-03T07:44:48;25.00;89.80
8095;DHT22;4090;49.270;8.696;2022-08-03T07:47:31;25.00;89.10
8095;DHT22;4090;49.270;8.696;2022-08-03T07:50:13;25.10;89.40
8095;DHT22;4090;49.270;8.696;2022-08-03T07:52:54;25.10;89.60
8095;DHT22;4090;49.270;8.696;2022-08-03T07:55:37;25.10;89.50
8095;DHT22;4090;49.270;8.696;2022-08-03T07:58:19;25.20;89.70
8095;DHT22;4090;49.270;8.696;2022-08-03T08:01:02;25.20;89.80
8095;DHT22;4090;49.270;8.696;2022-08-03T08:03:45;25.30;90.10
8095;DHT22;4090;49.270;8.696;2022-08-03T08:06:27;25.30;89.50
8095;DHT22;4090;49.270;8.696;2022-08-03T08:09:11;25.40;89.70
8095;DHT22;4090;49.270;8.696;2022-08-03T08:11:53;25.40;89.30
8095;DHT22;4090;49.270;8.696;2022-08-03T08:14:35;25.40;89.80
8095;DHT22;4090;49.270;8.696;2022-08-03T08:17:16;25.40;89.30
8095;DHT22;4090;49.270;8.696;2022-08-03T08:20:00;25.40;89.20
8095;DHT22;4090;49.270;8.696;2022-08-03T08:22:42;25.50;89.60
8095;DHT22;4090;49.270;8.696;2022-08-03T08:25:24;25.50;89.40
8095;DHT22;4090;49.270;8.696;2022-08-03T08:28:06;25.60;88.70
8095;DHT22;4090;49.270;8.696;2022-08-03T08:30:48;25.60;88.70
8095;DHT22;4090;49.270;8.696;2022-08-03T08:33:30;25.70;89.60
8095;DHT22;4090;49.270;8.696;2022-08-03T08:36:15;25.70;89.90
8095;DHT22;4090;49.270;8.696;2022-08-03T08:38:57;25.70;90.00
8095;DHT22;4090;49.270;8.696;2022-08-03T08:41:39;25.80;90.00
8095;DHT22;4090;49.270;8.696;2022-08-03T08:44:21;25.80;90.00
8095;DHT22;4090;49.270;8.696;2022-08-03T08:47:03;25.80;89.70
8095;DHT22;4090;49.270;8.696;2022-08-03T08:49:45;25.90;89.50
8095;DHT22;4090;49.270;8.696;2022-08-03T08:52:30;25.90;89.60
8095;DHT22;4090;49.270;8.696;2022-08-03T08:55:19;25.90;89.80
8095;DHT22;4090;49.270;8.696;2022-08-03T08:58:04;26.00;90.00
8095;DHT22;4090;49.270;8.696;2022-08-03T09:00:46;26.00;89.80
8095;DHT22;4090;49.270;8.696;2022-08-03T09:03:28;26.00;88.90
8095;DHT22;4090;49.270;8.696;2022-08-03T09:06:10;26.20;86.60
8095;DHT22;4090;49.270;8.696;2022-08-03T09:08:53;26.20;87.70
8095;DHT22;4090;49.270;8.696;2022-08-03T09:11:35;26.30;87.70
8095;DHT22;4090;49.270;8.696;2022-08-03T09:14:18;26.40;87.10
8095;DHT22;4090;49.270;8.696;2022-08-03T09:17:02;26.50;84.60
8095;DHT22;4090;49.270;8.696;2022-08-03T09:20:03;26.50;83.70
8095;DHT22;4090;49.270;8.696;2022-08-03T09:22:51;26.60;83.40
8095;DHT22;4090;49.270;8.696;2022-08-03T09:25:37;26.60;83.70
8095;DHT22;4090;49.270;8.696;2022-08-03T09:28:19;26.70;83.70
8095;DHT22;4090;49.270;8.696;2022-08-03T09:31:01;26.80;82.40
8095;DHT22;4090;49.270;8.696;2022-08-03T09:33:46;26.90;82.00
8095;DHT22;4090;49.270;8.696;2022-08-03T09:36:36;26.90;81.40
8095;DHT22;4090;49.270;8.696;2022-08-03T09:39:20;27.00;80.40
8095;DHT22;4090;49.270;8.696;2022-08-03T09:42:08;27.10;79.90
8095;DHT22;4090;49.270;8.696;2022-08-03T09:44:51;27.20;80.90
8095;DHT22;4090;49.270;8.696;2022-08-03T09:47:34;27.20;80.90
8095;DHT22;4090;49.270;8.696;2022-08-03T09:50:16;27.30;80.90
8095;DHT22;4090;49.270;8.696;2022-08-03T09:53:01;27.40;80.60
8095;DHT22;4090;49.270;8.696;2022-08-03T09:55:50;27.60;79.80
8095;DHT22;4090;49.270;8.696;2022-08-03T09:58:33;27.70;79.40
8095;DHT22;4090;49.270;8.696;2022-08-03T10:01:31;27.70;80.20
8095;DHT22;4090;49.270;8.696;2022-08-03T10:04:14;27.80;81.30
8095;DHT22;4090;49.270;8.696;2022-08-03T10:07:04;27.80;81.10
8095;DHT22;4090;49.270;8.696;2022-08-03T10:09:55;28.00;81.00
8095;DHT22;4090;49.270;8.696;2022-08-03T10:12:39;28.00;79.50
8095;DHT22;4090;49.270;8.696;2022-08-03T10:15:22;28.20;80.00
8095;DHT22;4090;49.270;8.696;2022-08-03T10:18:05;28.30;80.10
8095;DHT22;4090;49.270;8.696;2022-08-03T10:20:51;28.40;79.90
8095;DHT22;4090;49.270;8.696;2022-08-03T10:23:34;28.50;80.00
8095;DHT22;4090;49.270;8.696;2022-08-03T10:26:18;28.60;79.00
8095;DHT22;4090;49.270;8.696;2022-08-03T10:29:05;28.70;79.50
8095;DHT22;4090;49.270;8.696;2022-08-03T10:31:53;28.80;79.50
8095;DHT22;4090;49.270;8.696;2022-08-03T10:34:39;28.90;79.20
8095;DHT22;4090;49.270;8.696;2022-08-03T10:37:22;29.10;77.80
8095;DHT22;4090;49.270;8.696;2022-08-03T10:40:11;29.20;76.40
8095;DHT22;4090;49.270;8.696;2022-08-03T10:42:55;29.40;76.90
8095;DHT22;4090;49.270;8.696;2022-08-03T10:45:40;29.50;76.90
8095;DHT22;4090;49.270;8.696;2022-08-03T10:48:25;29.60;76.30
8095;DHT22;4090;49.270;8.696;2022-08-03T10:51:07;29.70;75.40
8095;DHT22;4090;49.270;8.696;2022-08-03T10:53:50;29.90;74.40
8095;DHT22;4090;49.270;8.696;2022-08-03T10:56:41;30.10;73.80
8095;DHT22;4090;49.270;8.696;2022-08-03T10:59:57;30.20;73.90
8095;DHT22;4090;49.270;8.696;2022-08-03T11:03:08;30.30;73.00
8095;DHT22;4090;49.270;8.696;2022-08-03T11:05:51;30.40;72.60
8095;DHT22;4090;49.270;8.696;2022-08-03T11:08:34;30.40;72.30
8095;DHT22;4090;49.270;8.696;2022-08-03T11:11:24;30.40;72.20
8095;DHT22;4090;49.270;8.696;2022-08-03T11:14:10;30.60;71.80
8095;DHT22;4090;49.270;8.696;2022-08-03T11:17:06;30.90;72.60
8095;DHT22;4090;49.270;8.696;2022-08-03T11:19:49;31.00;70.40
8095;DHT22;4090;49.270;8.696;2022-08-03T11:26:08;31.10;70.10
8095;DHT22;4090;49.270;8.696;2022-08-03T11:28:50;31.60;69.20
8095;DHT22;4090;49.270;8.696;2022-08-03T11:31:46;31.60;68.30
8095;DHT22;4090;49.270;8.696;2022-08-03T11:34:28;31.70;68.00
8095;DHT22;4090;49.270;8.696;2022-08-03T11:37:21;31.90;67.90
8095;DHT22;4090;49.270;8.696;2022-08-03T11:40:04;32.00;66.90
8095;DHT22;4090;49.270;8.696;2022-08-03T11:42:47;32.20;66.50
8095;DHT22;4090;49.270;8.696;2022-08-03T11:45:29;32.20;65.40
8095;DHT22;4090;49.270;8.696;2022-08-03T11:48:15;32.30;64.70
8095;DHT22;4090;49.270;8.696;2022-08-03T11:50:57;32.50;64.60
8095;DHT22;4090;49.270;8.696;2022-08-03T11:53:40;32.50;64.80
8095;DHT22;4090;49.270;8.696;2022-08-03T11:56:24;32.70;64.50
8095;DHT22;4090;49.270;8.696;2022-08-03T11:59:07;32.90;63.80
8095;DHT22;4090;49.270;8.696;2022-08-03T12:01:49;33.10;63.40
8095;DHT22;4090;49.270;8.696;2022-08-03T12:04:48;33.30;62.20
8095;DHT22;4090;49.270;8.696;2022-08-03T12:07:30;33.40;62.40
8095;DHT22;4090;49.270;8.696;2022-08-03T12:10:13;33.40;61.50
8095;DHT22;4090;49.270;8.696;2022-08-03T12:12:55;33.50;61.60
8095;DHT22;4090;49.270;8.696;2022-08-03T12:15:39;33.50;61.50
8095;DHT22;4090;49.270;8.696;2022-08-03T12:18:22;33.50;61.20
8095;DHT22;4090;49.270;8.696;2022-08-03T12:21:06;33.60;62.00
8095;DHT22;4090;49.270;8.696;2022-08-03T12:23:49;33.70;60.70
8095;DHT22;4090;49.270;8.696;2022-08-03T12:26:42;33.80;60.00
8095;DHT22;4090;49.270;8.696;2022-08-03T12:29:25;34.00;58.60
8095;DHT22;4090;49.270;8.696;2022-08-03T12:32:14;34.10;58.90
8095;DHT22;4090;49.270;8.696;2022-08-03T12:34:57;34.20;59.10
8095;DHT22;4090;49.270;8.696;2022-08-03T12:37:47;34.40;58.80
8095;DHT22;4090;49.270;8.696;2022-08-03T12:40:29;34.40;57.50
8095;DHT22;4090;49.270;8.696;2022-08-03T12:43:12;34.60;57.40
8095;DHT22;4090;49.270;8.696;2022-08-03T12:46:08;34.70;57.30
8095;DHT22;4090;49.270;8.696;2022-08-03T12:49:06;34.80;57.50
8095;DHT22;4090;49.270;8.696;2022-08-03T12:51:56;34.90;56.80
8095;DHT22;4090;49.270;8.696;2022-08-03T12:54:38;35.00;56.60
8095;DHT22;4090;49.270;8.696;2022-08-03T12:57:19;35.10;56.80
8095;DHT22;4090;49.270;8.696;2022-08-03T13:00:09;35.20;56.10
8095;DHT22;4090;49.270;8.696;2022-08-03T13:02:58;35.40;56.50
8095;DHT22;4090;49.270;8.696;2022-08-03T13:05:43;35.40;55.40
8095;DHT22;4090;49.270;8.696;2022-08-03T13:08:25;35.50;55.50
8095;DHT22;4090;49.270;8.696;2022-08-03T13:11:21;35.50;55.50
8095;DHT22;4090;49.270;8.696;2022-08-03T13:14:03;35.60;54.60
8095;DHT22;4090;49.270;8.696;2022-08-03T13:16:45;35.70;55.50
8095;DHT22;4090;49.270;8.696;2022-08-03T13:19:27;35.70;54.40
8095;DHT22;4090;49.270;8.696;2022-08-03T13:22:14;35.80;53.80
8095;DHT22;4090;49.270;8.696;2022-08-03T13:24:56;35.90;55.10
8095;DHT22;4090;49.270;8.696;2022-08-03T13:27:40;36.00;55.70
8095;DHT22;4090;49.270;8.696;2022-08-03T13:30:22;36.00;55.00
8095;DHT22;4090;49.270;8.696;2022-08-03T13:33:04;36.10;55.10
8095;DHT22;4090;49.270;8.696;2022-08-03T13:35:46;36.20;54.60
8095;DHT22;4090;49.270;8.696;2022-08-03T13:38:29;36.20;55.00
8095;DHT22;4090;49.270;8.696;2022-08-03T13:41:11;36.40;54.30
8095;DHT22;4090;49.270;8.696;2022-08-03T13:43:52;36.50;53.90
8095;DHT22;4090;49.270;8.696;2022-08-03T13:46:36;36.60;54.30
8095;DHT22;4090;49.270;8.696;2022-08-03T13:49:17;36.70;54.60
8095;DHT22;4090;49.270;8.696;2022-08-03T13:51:59;36.80;54.60
8095;DHT22;4090;49.270;8.696;2022-08-03T13:54:42;36.90;53.10
8095;DHT22;4090;49.270;8.696;2022-08-03T13:57:24;36.90;53.50
8095;DHT22;4090;49.270;8.696;2022-08-03T14:00:07;37.00;53.00
8095;DHT22;4090;49.270;8.696;2022-08-03T14:02:49;37.00;51.90
8095;DHT22;4090;49.270;8.696;2022-08-03T14:05:31;37.10;52.90
8095;DHT22;4090;49.270;8.696;2022-08-03T14:08:13;37.10;52.80
8095;DHT22;4090;49.270;8.696;2022-08-03T14:10:57;37.20;53.60
8095;DHT22;4090;49.270;8.696;2022-08-03T14:13:39;37.10;53.20
8095;DHT22;4090;49.270;8.696;2022-08-03T14:16:21;37.10;51.90
8095;DHT22;4090;49.270;8.696;2022-08-03T14:19:03;37.00;52.00
8095;DHT22;4090;49.270;8.696;2022-08-03T14:21:45;37.10;51.20
8095;DHT22;4090;49.270;8.696;2022-08-03T14:24:27;37.10;50.90
8095;DHT22;4090;49.270;8.696;2022-08-03T14:27:10;37.20;50.30
8095;DHT22;4090;49.270;8.696;2022-08-03T14:29:52;37.20;50.20
8095;DHT22;4090;49.270;8.696;2022-08-03T14:32:36;37.10;49.50
8095;DHT22;4090;49.270;8.696;2022-08-03T14:35:18;37.20;49.00
8095;DHT22;4090;49.270;8.696;2022-08-03T14:37:59;37.20;49.50
8095;DHT22;4090;49.270;8.696;2022-08-03T14:40:42;37.30;49.30
8095;DHT22;4090;49.270;8.696;2022-08-03T14:43:25;37.30;49.70
8095;DHT22;4090;49.270;8.696;2022-08-03T14:46:07;37.10;49.90
8095;DHT22;4090;49.270;8.696;2022-08-03T14:48:49;37.20;49.20
8095;DHT22;4090;49.270;8.696;2022-08-03T14:51:30;37.20;49.70
8095;DHT22;4090;49.270;8.696;2022-08-03T14:54:12;37.30;50.40
8095;DHT22;4090;49.270;8.696;2022-08-03T14:56:54;37.40;50.10
8095;DHT22;4090;49.270;8.696;2022-08-03T14:59:37;37.50;49.00
8095;DHT22;4090;49.270;8.696;2022-08-03T15:02:19;37.50;49.00
8095;DHT22;4090;49.270;8.696;2022-08-03T15:05:01;37.50;48.80
8095;DHT22;4090;49.270;8.696;2022-08-03T15:07:43;37.50;49.00
8095;DHT22;4090;49.270;8.696;2022-08-03T15:10:25;37.60;49.10
8095;DHT22;4090;49.270;8.696;2022-08-03T15:13:07;37.60;50.30
8095;DHT22;4090;49.270;8.696;2022-08-03T15:15:50;37.60;50.30
8095;DHT22;4090;49.270;8.696;2022-08-03T15:18:32;37.60;50.10
8095;DHT22;4090;49.270;8.696;2022-08-03T15:21:14;37.60;51.00
8095;DHT22;4090;49.270;8.696;2022-08-03T15:23:55;37.70;50.70
8095;DHT22;4090;49.270;8.696;2022-08-03T15:26:37;37.60;50.10
8095;DHT22;4090;49.270;8.696;2022-08-03T15:29:19;37.70;49.90
8095;DHT22;4090;49.270;8.696;2022-08-03T15:32:03;37.70;49.80
8095;DHT22;4090;49.270;8.696;2022-08-03T15:34:45;37.70;50.40
8095;DHT22;4090;49.270;8.696;2022-08-03T15:37:27;37.70;50.70
8095;DHT22;4090;49.270;8.696;2022-08-03T15:40:10;37.70;50.50
8095;DHT22;4090;49.270;8.696;2022-08-03T15:42:52;37.80;50.80
8095;DHT22;4090;49.270;8.696;2022-08-03T15:45:34;37.80;50.50
8095;DHT22;4090;49.270;8.696;2022-08-03T15:48:17;37.90;50.00
8095;DHT22;4090;49.270;8.696;2022-08-03T15:50:59;38.00;50.10
8095;DHT22;4090;49.270;8.696;2022-08-03T15:53:41;38.00;49.40
8095;DHT22;4090;49.270;8.696;2022-08-03T15:56:23;38.10;49.40
8095;DHT22;4090;49.270;8.696;2022-08-03T15:59:05;38.10;49.90
8095;DHT22;4090;49.270;8.696;2022-08-03T16:01:47;38.20;50.00
8095;DHT22;4090;49.270;8.696;2022-08-03T16:04:30;38.20;49.30
8095;DHT22;4090;49.270;8.696;2022-08-03T16:07:12;38.20;49.20
8095;DHT22;4090;49.270;8.696;2022-08-03T16:09:55;38.20;49.10
8095;DHT22;4090;49.270;8.696;2022-08-03T16:12:37;38.20;48.90
8095;DHT22;4090;49.270;8.696;2022-08-03T16:15:19;38.20;48.80
8095;DHT22;4090;49.270;8.696;2022-08-03T16:18:00;38.20;48.40
8095;DHT22;4090;49.270;8.696;2022-08-03T16:20:44;38.20;48.30
8095;DHT22;4090;49.270;8.696;2022-08-03T16:23:25;38.20;48.60
8095;DHT22;4090;49.270;8.696;2022-08-03T16:26:07;38.20;48.80
8095;DHT22;4090;49.270;8.696;2022-08-03T16:28:49;38.20;49.30
8095;DHT22;4090;49.270;8.696;2022-08-03T16:31:31;38.20;48.80
8095;DHT22;4090;49.270;8.696;2022-08-03T16:34:13;38.20;48.70
8095;DHT22;4090;49.270;8.696;2022-08-03T16:36:56;38.20;48.30
8095;DHT22;4090;49.270;8.696;2022-08-03T16:39:38;38.20;49.00
8095;DHT22;4090;49.270;8.696;2022-08-03T16:42:20;38.20;49.80
8095;DHT22;4090;49.270;8.696;2022-08-03T16:45:03;38.20;49.60
8095;DHT22;4090;49.270;8.696;2022-08-03T16:47:44;38.10;49.70
8095;DHT22;4090;49.270;8.696;2022-08-03T16:50:26;38.10;49.80
8095;DHT22;4090;49.270;8.696;2022-08-03T16:53:10;38.10;49.90
8095;DHT22;4090;49.270;8.696;2022-08-03T16:55:52;38.00;50.20
8095;DHT22;4090;49.270;8.696;2022-08-03T16:58:34;38.00;50.40
8095;DHT22;4090;49.270;8.696;2022-08-03T17:01:16;38.00;50.30
8095;DHT22;4090;49.270;8.696;2022-08-03T17:04:00;38.00;50.50
8095;DHT22;4090;49.270;8.696;2022-08-03T17:06:42;37.90;50.80
8095;DHT22;4090;49.270;8.696;2022-08-03T17:09:26;37.90;50.40
8095;DHT22;4090;49.270;8.696;2022-08-03T17:12:11;37.90;50.60
8095;DHT22;4090;49.270;8.696;2022-08-03T17:14:53;37.80;51.00
8095;DHT22;4090;49.270;8.696;2022-08-03T17:17:35;37.80;51.00
8095;DHT22;4090;49.270;8.696;2022-08-03T17:20:19;37.80;50.60
8095;DHT22;4090;49.270;8.696;2022-08-03T17:23:07;37.70;50.60
8095;DHT22;4090;49.270;8.696;2022-08-03T17:25:53;37.70;50.80
8095;DHT22;4090;49.270;8.696;2022-08-03T17:28:39;37.60;50.70
8095;DHT22;4090;49.270;8.696;2022-08-03T17:31:21;37.50;50.90
8095;DHT22;4090;49.270;8.696;2022-08-03T17:34:04;37.50;51.30
8095;DHT22;4090;49.270;8.696;2022-08-03T17:36:46;37.40;51.10
8095;DHT22;4090;49.270;8.696;2022-08-03T17:39:29;37.30;51.00
8095;DHT22;4090;49.270;8.696;2022-08-03T17:42:12;37.30;51.10
8095;DHT22;4090;49.270;8.696;2022-08-03T17:44:54;37.20;51.70
8095;DHT22;4090;49.270;8.696;2022-08-03T17:47:36;37.10;51.50
8095;DHT22;4090;49.270;8.696;2022-08-03T17:50:18;37.00;51.80
8095;DHT22;4090;49.270;8.696;2022-08-03T17:53:03;36.90;51.90